Time;durP1;ratioP1;P1;durP2;ratioP2;P2;SDS_P1;SDS_P2;PMS_P1;PMS_P2;Temp;Humidity;BMP_temperature;BMP_pressure;BME280_temperature;BME280_humidity;BME280_pressure;Samples;Min_cycle;Max_cycle;Signal;HPM_P1;HPM_P2
2021/03/23 00:02:10;;;;;;;2.75;2.08;;;;;;;2.99;80.92;98450.97;4855634;29;20029;-77
2021/03/23 00:04:36;;;;;;;3.63;2.35;;;;;;;2.98;80.95;98449.38;4874845;29;20033;-79
2021/03/23 00:07:02;;;;;;;3.97;2.05;;;;;;;3.02;81.15;98445.19;4859209;29;20036;-79
2021/03/23 00:09:27;;;;;;;3.38;1.98;;;;;;;3.02;80.81;98439.91;4845510;29;20041;-78
2021/03/23 00:11:52;;;;;;;2.90;2.42;;;;;;;3.01;81.11;98443.59;4845487;29;20059;-78
2021/03/23 00:14:18;;;;;;;2.75;2.15;;;;;;;3.03;81.33;98432.81;4846825;29;20092;-78
2021/03/23 00:16:45;;;;;;;5.60;2.63;;;;;;;3.03;81.47;98444.16;4845761;29;20090;-77
2021/03/23 00:19:12;;;;;;;4.03;2.05;;;;;;;3.01;81.14;98448.88;4843777;29;20502;-77
2021/03/23 00:21:38;;;;;;;2.97;2.17;;;;;;;3.01;81.29;98453.38;4845395;29;20034;-77
2021/03/23 00:24:04;;;;;;;2.88;2.33;;;;;;;2.99;81.33;98456.25;4857739;29;20044;-77
2021/03/23 00:26:31;;;;;;;3.13;2.55;;;;;;;2.98;81.59;98459.94;4852662;29;20045;-77
2021/03/23 00:28:57;;;;;;;3.40;2.08;;;;;;;2.98;81.25;98456.47;4863418;29;20041;-76
2021/03/23 00:31:29;;;;;;;3.22;2.20;;;;;;;2.99;81.52;98466.00;4863712;29;20109;-76
2021/03/23 00:33:56;;;;;;;3.25;2.50;;;;;;;2.97;81.07;98460.19;4848327;29;20052;-76
2021/03/23 00:36:24;;;;;;;4.00;2.38;;;;;;;2.97;81.58;98460.19;4866263;29;20112;-76
2021/03/23 00:38:53;;;;;;;3.17;1.98;;;;;;;2.97;81.31;98466.25;4866119;29;20042;-77
2021/03/23 00:41:18;;;;;;;3.35;2.45;;;;;;;2.92;81.54;98468.81;4850296;29;20029;-77
2021/03/23 00:43:44;;;;;;;3.45;2.22;;;;;;;2.88;81.64;98463.22;4850183;29;20034;-77
2021/03/23 00:46:09;;;;;;;5.68;2.72;;;;;;;2.86;81.73;98464.50;4860036;29;20101;-80
2021/03/23 00:49:39;;;;;;;3.85;2.50;;;;;;;2.85;81.72;98471.59;4858804;29;20425;-81
2021/03/23 00:52:07;;;;;;;3.35;2.28;;;;;;;2.83;81.71;98472.88;4861518;29;20417;-81
2021/03/23 00:54:33;;;;;;;2.72;2.45;;;;;;;2.79;81.77;98480.47;4871437;29;20082;-79
2021/03/23 00:57:19;;;;;;;4.03;2.28;;;;;;;2.77;81.78;98476.50;4854300;29;20502;-78
2021/03/23 00:59:44;;;;;;;3.72;2.53;;;;;;;2.76;82.14;98475.69;4841074;29;20030;-78
2021/03/23 01:02:10;;;;;;;4.97;3.17;;;;;;;2.72;82.04;98478.00;4859963;29;20029;-77
2021/03/23 01:04:36;;;;;;;3.65;2.33;;;;;;;2.71;82.02;98481.69;4844029;29;20030;-77
2021/03/23 01:07:01;;;;;;;3.75;2.40;;;;;;;2.72;82.19;98487.75;4867736;29;20401;-75
2021/03/23 01:09:27;;;;;;;4.70;2.35;;;;;;;2.69;81.91;98493.53;4878473;29;20085;-74
2021/03/23 01:11:53;;;;;;;4.63;2.72;;;;;;;2.67;81.92;98500.88;4863428;29;20029;-77
2021/03/23 01:14:19;;;;;;;5.57;3.10;;;;;;;2.69;82.09;98501.44;4866654;29;20029;-76
2021/03/23 01:16:44;;;;;;;5.55;2.95;;;;;;;2.69;82.44;98489.03;4874406;29;20030;-76
2021/03/23 01:19:10;;;;;;;3.70;2.65;;;;;;;2.68;82.41;98484.78;4866033;29;20041;-76
2021/03/23 01:21:35;;;;;;;3.35;2.58;;;;;;;2.71;81.85;98489.59;4849370;29;20033;-76
2021/03/23 01:24:01;;;;;;;4.07;3.00;;;;;;;2.71;82.29;98486.97;4850858;29;20029;-81
2021/03/23 01:26:26;;;;;;;5.30;3.17;;;;;;;2.74;82.31;98487.53;4861903;29;20120;-79
2021/03/23 01:28:52;;;;;;;3.80;3.17;;;;;;;2.71;82.06;98486.16;4852545;29;20117;-77
2021/03/23 01:31:17;;;;;;;4.40;2.97;;;;;;;2.74;82.37;98483.06;4856733;29;20048;-76
2021/03/23 01:33:43;;;;;;;4.40;3.17;;;;;;;2.72;82.13;98485.94;4866939;29;20053;-76
2021/03/23 01:36:08;;;;;;;4.57;3.10;;;;;;;2.72;81.94;98490.41;4858629;29;20065;-76
2021/03/23 01:38:33;;;;;;;4.00;2.65;;;;;;;2.74;82.16;98490.19;4866305;29;20116;-75
2021/03/23 01:41:00;;;;;;;3.88;2.17;;;;;;;2.71;82.52;98489.59;4864696;29;20044;-77
2021/03/23 01:43:30;;;;;;;3.05;2.20;;;;;;;2.68;82.73;98484.00;4857127;29;20054;-77
2021/03/23 01:45:57;;;;;;;4.00;3.15;;;;;;;2.71;82.60;98492.25;4863175;29;20049;-78
2021/03/23 01:48:33;;;;;;;5.15;3.03;;;;;;;2.68;82.48;98497.19;4860945;29;20100;-77
2021/03/23 01:51:03;;;;;;;4.70;2.55;;;;;;;2.70;82.52;98500.41;4853048;29;20089;-77
2021/03/23 01:53:46;;;;;;;3.20;2.47;;;;;;;2.70;82.07;98493.28;4868237;29;20033;-78
2021/03/23 01:56:13;;;;;;;5.97;3.30;;;;;;;2.70;82.72;98500.41;4866179;29;20037;-77
2021/03/23 01:58:43;;;;;;;3.38;2.67;;;;;;;2.71;82.17;98497.53;4864155;29;20096;-78
2021/03/23 02:01:11;;;;;;;5.63;3.50;;;;;;;2.71;82.40;98492.25;4859362;29;20037;-80
2021/03/23 02:03:37;;;;;;;5.82;3.33;;;;;;;2.72;82.02;98491.22;4848428;29;20132;-77
2021/03/23 02:06:04;;;;;;;6.82;4.20;;;;;;;2.73;82.35;98486.72;4849045;29;20034;-77
2021/03/23 02:08:29;;;;;;;8.27;4.45;;;;;;;2.70;82.14;98474.81;4873669;29;20025;-76
2021/03/23 02:10:58;;;;;;;7.32;3.97;;;;;;;2.71;81.94;98479.03;4861969;29;20041;-78
2021/03/23 02:13:24;;;;;;;10.48;5.05;;;;;;;2.73;82.15;98484.09;4848980;29;20337;-76
2021/03/23 02:15:50;;;;;;;6.57;4.35;;;;;;;2.75;81.83;98482.00;4880667;29;20041;-78
2021/03/23 02:18:26;;;;;;;10.43;5.00;;;;;;;2.74;82.14;98475.13;4853884;29;20037;-79
2021/03/23 02:20:58;;;;;;;11.15;5.85;;;;;;;2.77;81.88;98489.69;4865085;29;20029;-79
2021/03/23 02:23:30;;;;;;;13.70;5.95;;;;;;;2.76;82.31;98482.81;4846014;29;20052;-79
2021/03/23 02:25:55;;;;;;;9.93;4.88;;;;;;;2.73;82.10;98484.09;4855320;29;20161;-78
2021/03/23 02:28:21;;;;;;;7.35;4.40;;;;;;;2.70;81.89;98480.09;4864084;29;20773;-78
2021/03/23 02:30:50;;;;;;;9.18;4.68;;;;;;;2.71;82.19;98484.31;4865275;29;20041;-78
2021/03/23 02:33:15;;;;;;;6.63;4.22;;;;;;;2.68;82.34;98486.63;4874316;29;20045;-77
2021/03/23 02:35:41;;;;;;;4.70;3.95;;;;;;;2.64;82.31;98488.97;4862713;29;20040;-78
2021/03/23 02:38:06;;;;;;;6.75;4.80;;;;;;;2.64;81.97;98490.81;4845018;29;20049;-77
2021/03/23 02:40:32;;;;;;;8.40;5.05;;;;;;;2.62;82.27;98490.22;4863074;29;20033;-76
2021/03/23 02:42:57;;;;;;;8.43;5.38;;;;;;;2.62;82.14;98493.66;4867325;29;20493;-77
2021/03/23 02:45:24;;;;;;;11.65;4.97;;;;;;;2.60;82.70;98492.31;4866329;29;20108;-77
2021/03/23 02:47:50;;;;;;;9.60;4.93;;;;;;;2.62;82.49;98496.31;4860532;29;20037;-76
2021/03/23 02:50:16;;;;;;;5.38;4.35;;;;;;;2.62;81.98;98501.59;4861474;29;20101;-77
2021/03/23 02:52:42;;;;;;;7.07;4.22;;;;;;;2.58;82.52;98505.75;4861459;29;20037;-76
2021/03/23 02:55:08;;;;;;;6.68;4.97;;;;;;;2.61;82.54;98510.53;4858020;29;20097;-75
2021/03/23 02:57:34;;;;;;;9.70;4.55;;;;;;;2.61;82.05;98512.38;4843477;29;20085;-78
2021/03/23 02:59:59;;;;;;;4.40;3.50;;;;;;;2.60;82.09;98514.25;4845580;29;20025;-79
2021/03/23 03:02:25;;;;;;;5.68;4.45;;;;;;;2.58;82.05;98513.66;4844569;29;20028;-76
2021/03/23 03:04:50;;;;;;;5.95;3.97;;;;;;;2.56;82.25;98503.34;4875604;29;20028;-77
2021/03/23 03:07:15;;;;;;;5.07;3.40;;;;;;;2.59;82.04;98514.44;4878575;29;20033;-77
2021/03/23 03:09:41;;;;;;;7.25;3.63;;;;;;;2.58;82.01;98507.59;4875306;29;20081;-78
2021/03/23 03:12:07;;;;;;;6.28;4.18;;;;;;;2.60;81.75;98514.25;4844826;29;20041;-79
2021/03/23 03:14:33;;;;;;;4.35;3.20;;;;;;;2.59;81.58;98506.53;4865325;29;20033;-78
2021/03/23 03:16:59;;;;;;;7.25;3.88;;;;;;;2.56;81.92;98508.63;4852993;29;20057;-79
2021/03/23 03:19:25;;;;;;;6.60;4.25;;;;;;;2.57;82.21;98514.69;4850417;29;20044;-79
2021/03/23 03:21:50;;;;;;;7.70;4.18;;;;;;;2.56;81.87;98513.09;4860896;29;20041;-78
2021/03/23 03:24:16;;;;;;;6.00;3.95;;;;;;;2.55;82.36;98517.59;4864670;29;20534;-78
2021/03/23 03:26:41;;;;;;;6.85;4.28;;;;;;;2.56;82.29;98519.19;4875910;29;20033;-78
2021/03/23 03:29:07;;;;;;;7.15;4.53;;;;;;;2.57;81.95;98527.91;4845626;29;20038;-80
2021/03/23 03:31:33;;;;;;;6.03;3.95;;;;;;;2.56;81.57;98542.94;4836980;29;20029;-77
2021/03/23 03:33:59;;;;;;;10.38;4.15;;;;;;;2.58;82.01;98539.28;4854659;29;20076;-78
2021/03/23 03:36:27;;;;;;;6.55;4.00;;;;;;;2.58;81.95;98541.91;4879746;29;20053;-76
2021/03/23 03:38:53;;;;;;;4.65;3.83;;;;;;;2.58;81.78;98545.34;4878004;29;20117;-77
2021/03/23 03:41:19;;;;;;;6.18;3.65;;;;;;;2.55;81.88;98546.63;4877544;29;20041;-76
2021/03/23 03:43:44;;;;;;;8.02;4.60;;;;;;;2.59;82.12;98554.06;4856364;29;20028;-77
2021/03/23 03:46:10;;;;;;;5.65;3.85;;;;;;;2.56;81.31;98553.50;4859435;29;20053;-77
2021/03/23 03:48:35;;;;;;;6.35;3.92;;;;;;;2.55;81.78;98559.00;4862643;29;20040;-77
2021/03/23 03:51:01;;;;;;;7.00;4.13;;;;;;;2.56;81.77;98560.59;4877024;29;20033;-78
2021/03/23 03:53:27;;;;;;;6.45;4.22;;;;;;;2.56;81.67;98558.78;4856773;29;20109;-79
2021/03/23 03:55:53;;;;;;;5.65;3.78;;;;;;;2.57;81.42;98567.50;4845241;29;20056;-78
2021/03/23 03:58:19;;;;;;;6.30;4.20;;;;;;;2.58;81.25;98571.75;4859512;29;20037;-76
2021/03/23 04:00:45;;;;;;;6.05;3.67;;;;;;;2.57;81.80;98567.50;4865099;29;20401;-76
2021/03/23 04:03:31;;;;;;;4.85;3.53;;;;;;;2.58;81.53;98568.31;4856756;29;20036;-77
2021/03/23 04:05:57;;;;;;;6.95;3.05;;;;;;;2.61;81.39;98567.81;4851072;29;20065;-76
2021/03/23 04:08:26;;;;;;;6.85;3.55;;;;;;;2.59;81.42;98573.34;4849431;29;20033;-75
2021/03/23 04:10:53;;;;;;;4.88;3.28;;;;;;;2.60;81.91;98574.13;4863084;29;20033;-77
2021/03/23 04:13:19;;;;;;;5.50;3.40;;;;;;;2.63;81.41;98579.75;4853120;29;20036;-78
2021/03/23 04:15:47;;;;;;;5.72;3.40;;;;;;;2.62;81.69;98572.06;4868388;29;20044;-77
2021/03/23 04:18:17;;;;;;;5.13;3.70;;;;;;;2.62;81.53;98566.78;4852026;29;20030;-75
2021/03/23 04:20:43;;;;;;;5.75;3.60;;;;;;;2.60;80.86;98567.03;4862481;29;20041;-76
2021/03/23 04:23:17;;;;;;;4.60;3.20;;;;;;;2.57;81.49;98575.41;4863649;29;20037;-76
2021/03/23 04:25:42;;;;;;;4.28;2.88;;;;;;;2.59;81.18;98583.91;4845835;29;20113;-75
2021/03/23 04:28:08;;;;;;;6.32;3.50;;;;;;;2.55;81.19;98588.03;4863754;29;20043;-78
2021/03/23 04:30:33;;;;;;;6.15;3.38;;;;;;;2.58;81.47;98589.44;4846724;29;20036;-76
2021/03/23 04:32:58;;;;;;;4.88;3.20;;;;;;;2.61;81.12;98589.75;4865025;29;20049;-77
2021/03/23 04:35:27;;;;;;;4.22;2.85;;;;;;;2.63;80.95;98600.88;4865580;29;20101;-76
2021/03/23 04:37:54;;;;;;;7.25;3.78;;;;;;;2.63;80.79;98598.22;4871337;29;20116;-77
2021/03/23 04:40:20;;;;;;;7.28;3.20;;;;;;;2.66;80.67;98597.78;4875907;29;20052;-78
2021/03/23 04:42:45;;;;;;;5.38;3.80;;;;;;;2.66;80.95;98595.13;4859194;29;20029;-79
2021/03/23 04:45:11;;;;;;;6.50;3.75;;;;;;;2.68;80.82;98600.19;4850173;29;20466;-78
2021/03/23 04:47:37;;;;;;;6.00;3.83;;;;;;;2.70;80.40;98595.47;4847153;29;20512;-78
2021/03/23 04:50:03;;;;;;;7.18;4.20;;;;;;;2.72;80.80;98596.84;4846789;29;20117;-77
2021/03/23 04:52:29;;;;;;;5.22;3.50;;;;;;;2.70;80.47;98595.47;4847370;29;20107;-76
2021/03/23 04:54:54;;;;;;;4.90;3.30;;;;;;;2.74;80.15;98601.09;4848222;29;20033;-77
2021/03/23 04:57:20;;;;;;;5.43;4.57;;;;;;;2.72;80.10;98607.41;4866913;29;20045;-77
2021/03/23 04:59:45;;;;;;;7.22;3.72;;;;;;;2.76;80.39;98610.38;4848208;29;20041;-77
2021/03/23 05:02:10;;;;;;;7.28;4.03;;;;;;;2.75;80.30;98606.13;4853926;29;20378;-79
2021/03/23 05:04:36;;;;;;;5.45;3.70;;;;;;;2.77;79.88;98608.53;4855818;29;20038;-77
2021/03/23 05:07:01;;;;;;;6.90;3.50;;;;;;;2.74;79.95;98603.72;4852752;29;20124;-78
2021/03/23 05:09:27;;;;;;;7.43;3.75;;;;;;;2.75;78.79;98607.94;4858298;29;20485;-77
2021/03/23 05:11:52;;;;;;;4.72;3.30;;;;;;;2.71;79.37;98600.50;4855270;29;20037;-77
2021/03/23 05:14:17;;;;;;;5.43;3.30;;;;;;;2.70;79.54;98603.41;4864376;29;20062;-78
2021/03/23 05:16:43;;;;;;;4.65;2.75;;;;;;;2.69;78.99;98607.84;4863679;29;20037;-78
2021/03/23 05:19:09;;;;;;;4.72;3.00;;;;;;;2.70;78.97;98604.19;4863015;29;20041;-78
2021/03/23 05:21:34;;;;;;;5.13;3.03;;;;;;;2.64;78.85;98610.41;4856628;29;20508;-76
2021/03/23 05:24:01;;;;;;;4.88;3.00;;;;;;;2.63;79.19;98614.06;4855885;29;20038;-79
2021/03/23 05:26:28;;;;;;;4.82;2.65;;;;;;;2.60;78.68;98619.03;4860961;29;20041;-78
2021/03/23 05:28:54;;;;;;;3.78;2.88;;;;;;;2.60;78.90;98613.75;4848069;29;20449;-79
2021/03/23 05:31:20;;;;;;;6.05;3.70;;;;;;;2.60;78.94;98621.66;4846365;29;20041;-78
2021/03/23 05:33:45;;;;;;;3.35;3.00;;;;;;;2.60;78.99;98614.56;4852769;29;20057;-78
2021/03/23 05:36:11;;;;;;;4.70;3.30;;;;;;;2.61;78.56;98616.13;4864719;29;20494;-79
2021/03/23 05:38:37;;;;;;;8.07;2.85;;;;;;;2.62;78.79;98620.38;4855353;29;20042;-79
2021/03/23 05:41:06;;;;;;;4.65;2.78;;;;;;;2.64;78.37;98617.53;4838631;29;20046;-80
2021/03/23 05:44:27;;;;;;;6.15;3.50;;;;;;;2.64;78.98;98615.69;4848473;29;20037;-79
2021/03/23 05:46:54;;;;;;;5.25;3.75;;;;;;;2.64;78.90;98628.88;4823568;29;20045;-78
2021/03/23 05:49:25;;;;;;;10.10;4.18;;;;;;;2.67;79.04;98630.25;4827054;29;20061;-77
2021/03/23 05:52:06;;;;;;;6.28;3.80;;;;;;;2.69;79.28;98630.81;4826265;29;20037;-78
2021/03/23 05:54:40;;;;;;;5.90;3.90;;;;;;;2.70;78.98;98635.06;4829240;29;20026;-78
2021/03/23 05:57:16;;;;;;;5.88;3.70;;;;;;;2.70;79.39;98632.44;4827740;29;20033;-76
2021/03/23 06:00:20;;;;;;;8.23;4.32;;;;;;;2.70;78.80;98630.59;4827269;29;20068;-78
2021/03/23 06:03:01;;;;;;;9.50;4.68;;;;;;;2.66;78.74;98631.28;4825124;29;20045;-79
2021/03/23 06:05:27;;;;;;;5.22;3.65;;;;;;;2.65;78.68;98634.94;4825940;29;20044;-79
2021/03/23 06:07:53;;;;;;;7.88;4.32;;;;;;;2.62;78.36;98630.16;4826098;29;20120;-79
2021/03/23 06:10:20;;;;;;;9.00;4.68;;;;;;;2.59;77.37;98627.97;4825332;29;20026;-79
2021/03/23 06:13:20;;;;;;;7.32;4.50;;;;;;;2.55;77.92;98633.72;4825807;29;20034;-79
2021/03/23 06:16:18;;;;;;;6.47;4.32;;;;;;;2.56;78.45;98631.88;4825917;29;20041;-80
2021/03/23 06:18:56;;;;;;;11.15;6.35;;;;;;;2.56;78.63;98623.97;4822430;29;20072;-80
2021/03/23 06:21:29;;;;;;;7.88;4.13;;;;;;;2.53;77.98;98619.97;4825268;29;20459;-80
2021/03/23 06:23:58;;;;;;;7.80;4.30;;;;;;;2.54;78.76;98624.19;4824826;29;20030;-80
2021/03/23 06:26:52;;;;;;;7.88;5.07;;;;;;;2.56;78.45;98627.41;4825195;29;20086;-80
2021/03/23 06:30:00;;;;;;;7.40;4.47;;;;;;;2.57;78.75;98622.94;4824360;29;20581;-80
2021/03/23 06:37:50;;;;;;;11.05;5.68;;;;;;;2.70;79.13;98619.22;4872710;24;20065;-82
2021/03/23 06:40:20;;;;;;;12.13;7.63;;;;;;;2.71;79.57;98618.16;4837048;29;20487;-78
2021/03/23 06:45:28;;;;;;;9.18;6.13;;;;;;;2.74;79.17;98615.06;4848503;29;20058;-79
2021/03/23 06:50:33;;;;;;;8.40;5.18;;;;;;;2.73;79.25;98621.38;4917677;24;20096;-80
2021/03/23 06:53:12;;;;;;;9.30;5.47;;;;;;;2.72;78.95;98617.97;4847273;29;20120;-80
2021/03/23 06:55:45;;;;;;;10.05;5.95;;;;;;;2.78;78.65;98625.97;4845048;29;20061;-81
2021/03/23 06:58:32;;;;;;;9.48;5.15;;;;;;;2.82;78.83;98627.91;4842601;29;20049;-80
2021/03/23 07:01:21;;;;;;;8.93;5.05;;;;;;;2.83;78.77;98632.16;4842132;29;20041;-80
2021/03/23 07:04:15;;;;;;;14.98;6.18;;;;;;;2.87;79.27;98629.84;4840883;29;20038;-80
2021/03/23 07:06:41;;;;;;;11.23;5.25;;;;;;;2.89;78.61;98622.47;4841457;29;20030;-80
2021/03/23 07:09:19;;;;;;;10.98;6.68;;;;;;;2.93;79.09;98618.34;4841479;29;20026;-80
2021/03/23 07:12:00;;;;;;;11.13;6.32;;;;;;;2.96;79.17;98619.72;4843257;29;20038;-81
2021/03/23 07:14:41;;;;;;;10.85;5.95;;;;;;;2.95;78.10;98626.81;4840930;29;20574;-79
2021/03/23 07:17:09;;;;;;;8.18;5.72;;;;;;;2.93;77.86;98628.09;4840828;29;20033;-80
2021/03/23 07:19:47;;;;;;;9.50;5.97;;;;;;;2.92;77.77;98629.13;4840396;29;20041;-81
2021/03/23 07:22:27;;;;;;;16.40;6.47;;;;;;;2.91;77.81;98630.19;4841461;29;20034;-80
2021/03/23 07:24:56;;;;;;;9.20;5.93;;;;;;;2.90;78.09;98623.28;4842909;29;20124;-79
2021/03/23 07:27:24;;;;;;;9.20;5.85;;;;;;;2.86;77.19;98622.97;4840435;29;20048;-79
2021/03/23 07:29:51;;;;;;;9.63;6.22;;;;;;;2.89;78.04;98630.41;4846350;29;20034;-81
2021/03/23 07:33:10;;;;;;;11.02;5.65;;;;;;;2.91;76.49;98624.91;4852180;29;20392;-81
2021/03/23 07:36:01;;;;;;;7.90;4.97;;;;;;;2.88;73.52;98623.50;5558097;24;20439;-78
2021/03/23 07:38:50;;;;;;;7.25;4.70;;;;;;;2.85;73.56;98624.00;4823567;29;20098;-77
2021/03/23 07:41:40;;;;;;;10.57;5.80;;;;;;;2.84;74.47;98635.59;4823284;29;20065;-79
2021/03/23 07:46:45;;;;;;;7.20;4.60;;;;;;;2.88;74.21;98634.06;5124467;24;20388;-76
2021/03/23 07:49:23;;;;;;;9.00;4.68;;;;;;;2.87;73.33;98641.22;4842462;29;20050;-77
2021/03/23 07:52:00;;;;;;;11.68;5.50;;;;;;;2.84;72.44;98625.81;4842058;29;20091;-77
2021/03/23 07:54:35;;;;;;;8.05;5.57;;;;;;;2.87;72.35;98635.13;4842510;29;20026;-80
2021/03/23 07:57:36;;;;;;;10.05;5.88;;;;;;;2.89;72.04;98643.59;4855402;29;20058;-84
2021/03/23 08:10:24;;;;;;;7.95;5.55;;;;;;;2.92;67.98;98652.91;4837665;29;20045;-79
2021/03/23 08:12:57;;;;;;;8.75;6.07;;;;;;;2.92;68.57;98664.28;4825363;29;20183;-80
2021/03/23 08:15:45;;;;;;;9.20;5.75;;;;;;;2.85;68.11;98656.47;4832120;29;20026;-81
2021/03/23 08:18:20;;;;;;;10.50;6.10;;;;;;;2.86;69.21;98647.53;4825279;29;20023;-82
2021/03/23 08:21:07;;;;;;;9.80;6.30;;;;;;;2.95;70.12;98647.16;4825058;29;20371;-80
2021/03/23 08:23:45;;;;;;;10.15;6.03;;;;;;;3.00;71.07;98640.13;4827165;29;20407;-79
2021/03/23 08:26:52;;;;;;;9.25;6.07;;;;;;;3.02;67.70;98643.31;4828766;29;20559;-80
2021/03/23 08:29:29;;;;;;;10.68;6.40;;;;;;;3.03;67.48;98631.72;4831501;29;20105;-79
2021/03/23 08:32:30;;;;;;;12.95;7.18;;;;;;;3.11;67.80;98646.38;4833603;29;20044;-78
2021/03/23 08:35:07;;;;;;;9.23;6.20;;;;;;;3.13;65.73;98644.31;4827570;29;20099;-80
2021/03/23 08:38:00;;;;;;;11.18;6.68;;;;;;;3.23;68.15;98635.78;4826935;29;20098;-80
2021/03/23 08:40:37;;;;;;;14.45;7.38;;;;;;;3.27;67.16;98622.88;4826651;29;20038;-79
2021/03/23 08:43:03;;;;;;;10.70;6.10;;;;;;;3.33;65.83;98638.59;4826691;29;20076;-79
2021/03/23 08:45:34;;;;;;;7.55;5.78;;;;;;;3.38;64.87;98619.38;4825371;29;20038;-79
2021/03/23 08:48:05;;;;;;;10.77;5.50;;;;;;;3.41;64.32;98632.13;4825051;29;20137;-79
2021/03/23 08:50:39;;;;;;;8.23;5.95;;;;;;;3.44;64.00;98631.66;4826398;29;20046;-78
2021/03/23 08:53:31;;;;;;;8.07;4.97;;;;;;;3.48;63.72;98624.03;4824185;29;20123;-78
2021/03/23 08:55:58;;;;;;;10.13;6.50;;;;;;;3.56;63.12;98641.34;4824811;29;20506;-79
2021/03/23 08:58:54;;;;;;;10.65;6.28;;;;;;;3.70;65.75;98626.78;4824788;29;20133;-78
2021/03/23 09:01:25;;;;;;;10.27;6.57;;;;;;;3.80;65.99;98628.78;4824572;29;20099;-78
2021/03/23 09:03:53;;;;;;;9.18;5.78;;;;;;;3.93;67.40;98615.22;4825459;29;20098;-78
2021/03/23 09:06:23;;;;;;;9.97;6.00;;;;;;;4.08;67.31;98605.88;4827162;29;20030;-78
2021/03/23 09:08:54;;;;;;;9.95;5.90;;;;;;;4.22;66.59;98612.41;4823885;29;20487;-78
2021/03/23 09:11:38;;;;;;;9.40;5.90;;;;;;;4.36;66.92;98609.41;4823866;29;20065;-78
2021/03/23 09:14:06;;;;;;;8.10;4.80;;;;;;;4.47;66.44;98603.19;4823841;29;20552;-77
2021/03/23 09:17:00;;;;;;;8.90;5.30;;;;;;;4.60;65.02;98599.38;4826914;29;20459;-78
2021/03/23 09:19:33;;;;;;;11.38;5.43;;;;;;;4.65;62.98;98597.59;4826454;29;20069;-77
2021/03/23 09:21:59;;;;;;;9.85;5.72;;;;;;;4.68;62.77;98601.59;4826336;29;20042;-77
2021/03/23 09:24:35;;;;;;;7.95;5.95;;;;;;;4.66;62.84;98595.72;4843388;29;20037;-77
2021/03/23 09:27:03;;;;;;;7.13;5.05;;;;;;;4.68;62.04;98600.78;4826853;29;20052;-78
2021/03/23 09:29:31;;;;;;;9.77;6.05;;;;;;;4.73;62.97;98591.03;4827582;29;20033;-77
2021/03/23 09:32:02;;;;;;;9.60;5.45;;;;;;;4.77;63.60;98591.34;4826363;29;20033;-78
2021/03/23 09:35:09;;;;;;;9.90;5.82;;;;;;;4.72;60.12;98601.88;4826124;29;20034;-77
2021/03/23 09:37:51;;;;;;;8.88;6.53;;;;;;;4.68;60.44;98601.59;4825843;29;20034;-77
2021/03/23 09:40:17;;;;;;;8.52;4.88;;;;;;;4.70;60.19;98588.09;4842707;29;20042;-79
2021/03/23 09:42:45;;;;;;;7.78;4.78;;;;;;;4.70;60.49;98582.78;4842313;29;20025;-78
2021/03/23 09:45:10;;;;;;;9.05;6.22;;;;;;;4.86;60.20;98587.22;4826282;29;20041;-79
2021/03/23 09:47:49;;;;;;;9.70;5.45;;;;;;;4.93;61.03;98585.16;4842377;29;20113;-77
2021/03/23 09:50:52;;;;;;;7.50;4.82;;;;;;;5.01;60.67;98586.56;4825841;29;20026;-78
2021/03/23 09:53:25;;;;;;;7.95;5.47;;;;;;;5.02;58.73;98593.47;4780112;29;20456;-79
2021/03/23 09:55:51;;;;;;;9.43;5.65;;;;;;;5.03;60.37;98591.59;4820995;29;20056;-79
2021/03/23 09:58:24;;;;;;;8.65;5.15;;;;;;;5.01;60.27;98577.81;4841728;29;20120;-78
2021/03/23 10:00:50;;;;;;;12.18;5.75;;;;;;;5.01;60.33;98581.25;4841618;29;20037;-78
2021/03/23 10:03:34;;;;;;;7.68;4.85;;;;;;;5.01;60.15;98575.94;4841011;29;20036;-77
2021/03/23 10:06:04;;;;;;;7.90;5.30;;;;;;;5.01;58.24;98586.56;4841215;29;20034;-77
2021/03/23 10:08:36;;;;;;;7.95;4.68;;;;;;;4.97;58.51;98591.56;4840902;29;20073;-77
2021/03/23 10:11:07;;;;;;;6.93;4.97;;;;;;;5.02;60.10;98577.56;4841376;29;20065;-77
2021/03/23 10:13:33;;;;;;;7.88;5.20;;;;;;;4.96;56.61;98599.75;4825197;29;20069;-78
2021/03/23 10:16:02;;;;;;;10.40;5.57;;;;;;;4.99;58.87;98596.59;4824499;29;20033;-77
2021/03/23 10:18:30;;;;;;;11.45;5.55;;;;;;;4.87;57.02;98583.50;4841652;29;20072;-77
2021/03/23 10:21:10;;;;;;;11.15;5.38;;;;;;;4.93;59.27;98592.28;4824723;29;20102;-77
2021/03/23 10:23:51;;;;;;;8.38;5.13;;;;;;;4.97;60.20;98585.47;4840356;29;20071;-76
2021/03/23 10:26:18;;;;;;;5.90;4.45;;;;;;;4.97;57.61;98588.13;4841025;29;20040;-75
2021/03/23 10:28:53;;;;;;;7.55;5.35;;;;;;;5.06;57.58;98593.75;4841277;29;20059;-75
2021/03/23 10:31:36;;;;;;;7.57;4.50;;;;;;;5.05;56.64;98590.28;4824182;29;20030;-74
2021/03/23 10:34:14;;;;;;;11.93;5.18;;;;;;;5.05;54.82;98589.50;4840472;29;20037;-77
2021/03/23 10:36:56;;;;;;;6.90;3.97;;;;;;;5.06;55.27;98583.94;4840933;29;20037;-77
2021/03/23 10:39:54;;;;;;;9.27;5.20;;;;;;;5.11;56.84;98583.19;4840413;29;20065;-77
2021/03/23 10:42:23;;;;;;;5.47;3.30;;;;;;;5.17;55.37;98586.72;4840331;29;20046;-77
2021/03/23 10:44:50;;;;;;;6.30;4.45;;;;;;;5.20;54.76;98592.31;4840680;29;20120;-77
2021/03/23 10:47:29;;;;;;;8.63;4.43;;;;;;;5.21;55.68;98593.09;4840230;29;20034;-76
2021/03/23 10:49:55;;;;;;;8.52;4.43;;;;;;;5.24;54.71;98588.09;4824091;29;20037;-76
2021/03/23 10:52:20;;;;;;;4.25;3.63;;;;;;;5.40;54.96;98581.06;4823858;29;20034;-76
2021/03/23 10:54:46;;;;;;;5.93;3.60;;;;;;;5.43;54.54;98583.22;4823575;29;20038;-76
2021/03/23 10:57:32;;;;;;;6.85;3.88;;;;;;;5.48;53.07;98598.38;4839871;29;20034;-77
2021/03/23 11:00:21;;;;;;;6.20;3.42;;;;;;;5.53;53.38;98584.34;4841592;29;20037;-77
2021/03/23 11:02:46;;;;;;;6.18;3.88;;;;;;;5.56;53.63;98583.84;4823665;29;20030;-76
2021/03/23 11:05:15;;;;;;;6.03;3.22;;;;;;;5.55;54.09;98583.03;4840972;29;20410;-79
2021/03/23 11:07:59;;;;;;;4.15;3.60;;;;;;;5.63;54.62;98575.66;4824166;29;20053;-77
2021/03/23 11:10:28;;;;;;;4.35;3.50;;;;;;;5.71;51.50;98576.00;4824246;29;20038;-77
2021/03/23 11:12:54;;;;;;;5.40;4.07;;;;;;;5.83;50.48;98580.31;4841299;29;20112;-77
2021/03/23 11:15:19;;;;;;;7.63;3.00;;;;;;;5.90;49.79;98567.63;4826312;29;20093;-78
2021/03/23 11:17:49;;;;;;;5.38;4.00;;;;;;;5.84;48.77;98582.69;4824221;29;20121;-78
2021/03/23 11:20:23;;;;;;;4.88;3.35;;;;;;;5.98;51.75;98575.09;4824576;29;20026;-77
2021/03/23 11:22:51;;;;;;;3.60;2.85;;;;;;;5.97;49.68;98570.03;4841208;29;20030;-77
2021/03/23 11:25:22;;;;;;;3.85;3.00;;;;;;;6.00;49.22;98583.63;4841110;29;20037;-77
2021/03/23 11:27:47;;;;;;;4.82;2.85;;;;;;;6.04;49.25;98565.31;4841740;29;20044;-77
2021/03/23 11:30:13;;;;;;;4.72;3.15;;;;;;;6.06;49.93;98576.50;4826068;29;20121;-77
2021/03/23 11:32:39;;;;;;;4.15;2.78;;;;;;;5.98;48.78;98568.97;4842400;29;20446;-78
2021/03/23 11:35:05;;;;;;;3.15;2.75;;;;;;;5.99;49.23;98565.28;4841919;29;20033;-78
2021/03/23 11:37:31;;;;;;;3.35;2.55;;;;;;;5.98;49.16;98576.94;4826616;29;20034;-78
2021/03/23 11:39:56;;;;;;;2.83;1.95;;;;;;;5.94;47.94;98552.75;4825161;29;20456;-77
2021/03/23 11:42:35;;;;;;;6.88;2.42;;;;;;;6.02;47.68;98564.78;4825784;29;20120;-78
2021/03/23 11:45:08;;;;;;;4.35;2.30;;;;;;;6.05;47.82;98559.78;4825053;29;20057;-77
2021/03/23 11:47:44;;;;;;;4.68;2.53;;;;;;;6.17;49.15;98554.22;4825457;29;20455;-78
2021/03/23 11:50:23;;;;;;;2.97;2.05;;;;;;;6.29;46.94;98553.22;4840383;29;20038;-77
2021/03/23 11:52:49;;;;;;;;;;;;;;;6.31;45.64;98540.47;4841425;29;20034;-78
2021/03/23 11:55:25;;;;;;;1.67;1.55;;;;;;;6.44;46.84;98557.81;4842099;29;20004;-77
2021/03/23 11:57:51;;;;;;;5.63;2.13;;;;;;;6.42;44.08;98552.75;4824337;29;20030;-77
2021/03/23 12:00:18;;;;;;;3.53;2.20;;;;;;;6.39;45.49;98569.19;4841339;29;20030;-79
2021/03/23 12:02:43;;;;;;;3.10;2.33;;;;;;;6.42;46.01;98568.69;4841316;29;20034;-78
2021/03/23 12:05:11;;;;;;;2.20;1.50;;;;;;;6.41;45.93;98559.13;4840350;29;20044;-78
2021/03/23 12:08:05;;;;;;;3.60;2.50;;;;;;;6.39;45.56;98561.22;4824317;29;20049;-78
2021/03/23 12:10:42;;;;;;;1.55;1.45;;;;;;;6.30;45.03;98563.59;4840455;29;20080;-79
2021/03/23 12:13:19;;;;;;;5.40;2.20;;;;;;;6.34;46.96;98559.34;4825285;29;20041;-79
2021/03/23 12:16:06;;;;;;;1.70;1.60;;;;;;;6.35;45.11;98565.47;4840841;29;20065;-78
2021/03/23 12:18:33;;;;;;;2.95;2.08;;;;;;;6.40;43.94;98552.22;4824667;29;20083;-78
2021/03/23 12:21:00;;;;;;;5.65;1.63;;;;;;;6.46;46.77;98540.53;4840039;29;20040;-78
2021/03/23 12:23:27;;;;;;;2.22;1.70;;;;;;;6.41;45.88;98557.25;4824255;29;20041;-78
2021/03/23 12:25:55;;;;;;;3.40;1.95;;;;;;;6.42;43.87;98566.03;4824883;29;20041;-78
2021/03/23 12:31:02;;;;;;;2.80;1.52;;;;;;;6.56;44.56;98519.31;4844628;29;20050;-75